Time;durP1;ratioP1;P1;durP2;ratioP2;P2;SDS_P1;SDS_P2;PMS_P1;PMS_P2;Temp;Humidity;BMP_temperature;BMP_pressure;BME280_temperature;BME280_humidity;BME280_pressure;Samples;Min_cycle;Max_cycle;Signal;HPM_P1;HPM_P2
2021/06/24 00:05:04;;;;;;;47.75;9.57;;;24.90;76.20;;;;;;5036006;28;20329;-41
2021/06/24 00:07:30;;;;;;;34.85;9.73;;;24.80;76.30;;;;;;5035413;28;20041;-41
2021/06/24 00:09:55;;;;;;;32.85;9.82;;;24.80;76.40;;;;;;5035680;28;20409;-41
2021/06/24 00:12:22;;;;;;;31.35;9.05;;;24.80;76.40;;;;;;5035171;28;20033;-42
2021/06/24 00:14:47;;;;;;;36.63;9.35;;;24.80;76.40;;;;;;5035807;28;20133;-41
2021/06/24 00:17:13;;;;;;;35.97;9.07;;;24.80;76.40;;;;;;5035456;28;20120;-41
2021/06/24 00:19:39;;;;;;;29.45;8.45;;;24.80;76.20;;;;;;5035457;28;20038;-44
2021/06/24 00:22:04;;;;;;;39.67;9.88;;;24.80;76.20;;;;;;5035163;28;20053;-42
2021/06/24 00:24:30;;;;;;;38.85;9.73;;;24.70;76.10;;;;;;5035379;28;20026;-41
2021/06/24 00:26:56;;;;;;;38.80;9.75;;;24.70;76.00;;;;;;5035556;28;20029;-41
2021/06/24 00:29:21;;;;;;;41.92;9.40;;;24.70;76.00;;;;;;5035406;28;20040;-41
2021/06/24 00:31:47;;;;;;;31.40;8.35;;;24.70;76.00;;;;;;5035530;28;20413;-41
2021/06/24 00:34:13;;;;;;;35.53;10.57;;;24.70;75.90;;;;;;5035315;28;20075;-41
2021/06/24 00:36:38;;;;;;;37.42;9.32;;;24.60;75.70;;;;;;5035434;28;20061;-40
2021/06/24 00:39:04;;;;;;;39.25;9.45;;;24.60;75.60;;;;;;5035226;28;20076;-41
2021/06/24 00:41:31;;;;;;;39.50;9.55;;;24.60;76.10;;;;;;5035639;28;20076;-41
2021/06/24 00:43:56;;;;;;;39.63;9.50;;;24.60;75.30;;;;;;5035280;28;20030;-41
2021/06/24 00:46:22;;;;;;;28.98;8.48;;;24.60;75.30;;;;;;5035650;28;20075;-42
2021/06/24 00:48:58;;;;;;;31.20;8.07;;;24.60;75.20;;;;;;5035154;28;20080;-41
2021/06/24 00:51:24;;;;;;;27.67;8.10;;;24.60;75.10;;;;;;5039085;28;20108;-41
2021/06/24 00:53:50;;;;;;;33.33;7.47;;;24.60;74.90;;;;;;5038988;28;20109;-40
2021/06/24 00:56:26;;;;;;;34.67;7.97;;;24.60;74.80;;;;;;5039437;28;20407;-43
2021/06/24 00:58:52;;;;;;;33.45;8.73;;;24.50;74.40;;;;;;5038890;28;20155;-42
2021/06/24 01:01:18;;;;;;;32.33;7.55;;;24.50;74.40;;;;;;5039230;28;20423;-41
2021/06/24 01:03:43;;;;;;;30.05;7.93;;;24.50;74.40;;;;;;5038705;28;20034;-42
2021/06/24 01:06:09;;;;;;;27.92;7.57;;;24.50;74.40;;;;;;5039209;28;20021;-41
2021/06/24 01:08:35;;;;;;;26.60;8.05;;;24.40;74.10;;;;;;5038255;28;20029;-42
2021/06/24 01:11:00;;;;;;;25.33;7.20;;;24.40;74.10;;;;;;5038952;28;20029;-43
2021/06/24 01:13:28;;;;;;;19.83;7.35;;;24.40;74.00;;;;;;5038486;28;20065;-43
2021/06/24 01:15:53;;;;;;;23.75;6.55;;;24.40;74.00;;;;;;5038987;28;20025;-42
2021/06/24 01:18:19;;;;;;;25.73;7.80;;;24.40;73.90;;;;;;5038474;28;20452;-40
2021/06/24 01:20:45;;;;;;;31.10;8.25;;;24.30;74.10;;;;;;5038518;28;20030;-42
2021/06/24 01:23:11;;;;;;;29.27;8.13;;;24.30;73.80;;;;;;5038174;28;20040;-40
2021/06/24 01:25:38;;;;;;;28.25;8.07;;;24.30;73.60;;;;;;5038805;28;20049;-42
2021/06/24 01:28:06;;;;;;;32.30;8.13;;;24.30;73.70;;;;;;5038247;28;20095;-41
2021/06/24 01:30:33;;;;;;;22.63;7.78;;;24.30;74.00;;;;;;5038733;28;20103;-42
2021/06/24 01:32:59;;;;;;;29.73;7.50;;;24.20;73.90;;;;;;5038223;28;20025;-42
2021/06/24 01:35:27;;;;;;;29.10;7.50;;;24.20;73.80;;;;;;5038557;28;20029;-44
2021/06/24 01:38:02;;;;;;;37.75;7.47;;;24.20;73.70;;;;;;5038192;28;20059;-42
2021/06/24 01:40:29;;;;;;;27.80;7.30;;;24.10;73.50;;;;;;5038274;28;20061;-43
2021/06/24 01:42:55;;;;;;;28.13;7.18;;;24.10;73.60;;;;;;5053377;28;20453;-42
2021/06/24 01:45:22;;;;;;;26.05;6.75;;;24.10;73.60;;;;;;5038366;28;20064;-42
2021/06/24 01:47:49;;;;;;;27.10;6.78;;;24.10;73.90;;;;;;5037514;28;20033;-42
2021/06/24 01:50:15;;;;;;;27.88;7.95;;;24.10;73.80;;;;;;5038354;28;20099;-42
2021/06/24 01:52:43;;;;;;;31.25;6.63;;;24.10;73.70;;;;;;5037659;28;20109;-45
2021/06/24 01:55:10;;;;;;;27.05;7.45;;;24.10;73.60;;;;;;5038132;28;20124;-41
2021/06/24 01:57:36;;;;;;;28.17;7.88;;;24.10;73.70;;;;;;5037482;28;20120;-43
2021/06/24 02:00:10;;;;;;;27.25;7.68;;;24.10;74.00;;;;;;5037633;28;20072;-45
2021/06/24 02:02:36;;;;;;;31.27;7.45;;;24.00;74.00;;;;;;5036607;28;20068;-43
2021/06/24 02:05:06;;;;;;;24.27;7.47;;;24.00;74.00;;;;;;5038120;28;20032;-43
2021/06/24 02:07:32;;;;;;;23.25;7.47;;;24.00;74.40;;;;;;5037497;28;20105;-41
2021/06/24 02:09:58;;;;;;;22.45;7.55;;;24.00;74.40;;;;;;5037692;28;20389;-41
2021/06/24 02:12:24;;;;;;;30.05;7.38;;;24.00;74.20;;;;;;5037568;28;20036;-43
2021/06/24 02:14:49;;;;;;;20.83;7.13;;;24.00;74.60;;;;;;5037518;28;20033;-42
2021/06/24 02:17:15;;;;;;;26.95;7.05;;;23.90;74.60;;;;;;5037538;28;20386;-41
2021/06/24 02:19:41;;;;;;;33.72;8.05;;;24.00;74.50;;;;;;5037375;28;20060;-42
2021/06/24 02:22:06;;;;;;;27.27;7.50;;;24.00;74.40;;;;;;5037152;28;20049;-41
2021/06/24 02:24:32;;;;;;;19.20;6.35;;;24.00;74.40;;;;;;5037631;28;20022;-41
2021/06/24 02:26:58;;;;;;;26.00;7.20;;;24.00;74.80;;;;;;5037368;28;20092;-41
2021/06/24 02:29:23;;;;;;;23.27;6.85;;;24.00;74.80;;;;;;5037465;28;20414;-42
2021/06/24 02:31:49;;;;;;;22.30;7.05;;;24.10;74.90;;;;;;5037468;28;20037;-47
2021/06/24 02:34:17;;;;;;;27.80;7.05;;;24.10;74.90;;;;;;5037477;28;20402;-42
2021/06/24 02:36:42;;;;;;;26.10;7.13;;;24.10;74.90;;;;;;5037306;28;20400;-42
2021/06/24 02:39:08;;;;;;;27.92;7.40;;;24.10;75.00;;;;;;5036962;28;20141;-43
2021/06/24 02:41:35;;;;;;;24.23;6.88;;;24.10;75.00;;;;;;5037382;28;20051;-43
2021/06/24 02:44:02;;;;;;;20.27;6.60;;;24.10;74.80;;;;;;5036746;28;20035;-41
2021/06/24 02:46:28;;;;;;;23.30;6.85;;;24.10;74.80;;;;;;5037237;28;20025;-42
2021/06/24 02:48:54;;;;;;;21.17;7.35;;;24.10;74.80;;;;;;5052021;28;20021;-43
2021/06/24 02:51:19;;;;;;;23.42;6.78;;;24.20;74.70;;;;;;5037176;28;20445;-41
2021/06/24 02:53:45;;;;;;;27.92;6.93;;;24.20;74.50;;;;;;5036409;28;20030;-41
2021/06/24 02:56:11;;;;;;;22.95;7.47;;;24.20;74.40;;;;;;5036670;28;20269;-41
2021/06/24 02:58:36;;;;;;;35.25;7.78;;;24.20;74.40;;;;;;5036536;28;20072;-41
2021/06/24 03:01:03;;;;;;;28.42;7.90;;;24.30;74.30;;;;;;5036951;28;20383;-42
2021/06/24 03:03:29;;;;;;;23.92;7.45;;;24.30;74.30;;;;;;5036209;28;20060;-44
2021/06/24 03:05:54;;;;;;;25.35;7.63;;;24.30;74.00;;;;;;5036706;28;20067;-42
2021/06/24 03:08:21;;;;;;;24.75;7.07;;;24.30;74.00;;;;;;5036126;28;20030;-45
2021/06/24 03:10:47;;;;;;;27.90;8.40;;;24.30;74.00;;;;;;5036921;28;20303;-42
2021/06/24 03:13:13;;;;;;;42.08;8.93;;;24.30;73.90;;;;;;5035897;28;20037;-43
2021/06/24 03:15:39;;;;;;;29.45;8.32;;;24.40;73.70;;;;;;5036651;28;20034;-41
2021/06/24 03:18:05;;;;;;;31.27;8.63;;;24.40;73.70;;;;;;5036229;28;20068;-41
2021/06/24 03:20:31;;;;;;;34.35;9.32;;;24.40;73.40;;;;;;5036344;28;20375;-41
2021/06/24 03:22:59;;;;;;;31.95;8.70;;;24.40;73.40;;;;;;5036146;28;20452;-42
2021/06/24 03:25:25;;;;;;;31.95;8.63;;;24.40;73.50;;;;;;5036498;28;20123;-42
2021/06/24 03:27:51;;;;;;;34.40;8.65;;;24.40;73.80;;;;;;5036066;28;20017;-41
2021/06/24 03:30:17;;;;;;;32.97;8.85;;;24.40;74.00;;;;;;5036339;28;20495;-41
2021/06/24 03:32:43;;;;;;;38.47;9.88;;;24.40;74.40;;;;;;5035632;28;20487;-41
2021/06/24 03:35:10;;;;;;;31.08;9.02;;;24.40;74.60;;;;;;5035941;28;20033;-41
2021/06/24 03:37:36;;;;;;;33.20;9.30;;;24.40;75.10;;;;;;5035980;28;20437;-42
2021/06/24 03:40:06;;;;;;;34.70;9.70;;;24.50;75.40;;;;;;5035825;28;20075;-40
2021/06/24 03:42:31;;;;;;;35.47;9.02;;;24.50;75.40;;;;;;5035914;28;20064;-42
2021/06/24 03:44:57;;;;;;;37.80;9.15;;;24.50;75.30;;;;;;5035796;28;20029;-41
2021/06/24 03:47:23;;;;;;;32.92;8.55;;;24.60;75.60;;;;;;5035819;28;20036;-41
2021/06/24 03:49:49;;;;;;;32.75;8.38;;;24.60;74.80;;;;;;5035441;28;20052;-43
2021/06/24 03:52:14;;;;;;;28.27;9.38;;;24.60;74.60;;;;;;5035691;28;20060;-44
2021/06/24 03:54:40;;;;;;;35.08;9.07;;;24.60;74.40;;;;;;5035724;28;20021;-44
2021/06/24 03:57:06;;;;;;;43.13;10.15;;;24.70;74.00;;;;;;5035842;28;20029;-41
2021/06/24 03:59:31;;;;;;;32.70;9.00;;;24.70;74.00;;;;;;5035561;28;20025;-44
2021/06/24 04:01:57;;;;;;;22.77;8.35;;;24.70;74.00;;;;;;5035927;28;20041;-42
2021/06/24 04:04:23;;;;;;;37.05;8.63;;;24.70;73.70;;;;;;5035761;28;20021;-41
2021/06/24 04:06:48;;;;;;;37.63;8.73;;;24.80;73.70;;;;;;5035813;28;20045;-40
2021/06/24 04:09:14;;;;;;;24.25;8.20;;;24.80;73.40;;;;;;5035367;28;20017;-41
2021/06/24 04:11:40;;;;;;;20.88;7.82;;;24.80;73.60;;;;;;5035694;28;20295;-43
2021/06/24 04:14:07;;;;;;;26.42;8.35;;;24.80;73.50;;;;;;5035728;28;20049;-43
2021/06/24 04:16:32;;;;;;;27.00;8.15;;;24.80;73.40;;;;;;5035760;28;20033;-42
2021/06/24 04:18:58;;;;;;;31.27;9.07;;;24.90;73.60;;;;;;5035121;28;20032;-41
2021/06/24 04:21:24;;;;;;;25.08;8.98;;;24.90;73.60;;;;;;5035044;28;20049;-41
2021/06/24 04:23:50;;;;;;;23.95;7.63;;;24.90;73.50;;;;;;5035036;28;20028;-41
2021/06/24 04:26:15;;;;;;;29.38;8.57;;;25.00;73.50;;;;;;5039871;28;20038;-42
2021/06/24 04:28:41;;;;;;;34.13;7.97;;;25.00;73.50;;;;;;5039100;28;20428;-42
2021/06/24 04:31:07;;;;;;;31.02;7.93;;;25.00;73.30;;;;;;5039490;28;20041;-41
2021/06/24 04:33:34;;;;;;;40.60;8.93;;;25.00;73.10;;;;;;5038833;28;20121;-41
2021/06/24 04:36:00;;;;;;;36.53;9.07;;;25.00;73.10;;;;;;5039597;28;20056;-42
2021/06/24 04:38:25;;;;;;;25.30;7.93;;;25.00;72.90;;;;;;5038821;28;20022;-42
2021/06/24 04:40:51;;;;;;;29.05;8.30;;;25.00;72.70;;;;;;5039271;28;20041;-40
2021/06/24 04:43:17;;;;;;;37.05;9.20;;;25.10;72.70;;;;;;5038427;28;20030;-40
2021/06/24 04:45:42;;;;;;;32.00;8.85;;;25.10;72.60;;;;;;5039175;28;20029;-42
2021/06/24 04:48:08;;;;;;;35.22;11.70;;;25.10;72.30;;;;;;5038559;28;20029;-41
2021/06/24 04:50:36;;;;;;;36.75;8.77;;;25.10;72.30;;;;;;5038959;28;20044;-40
2021/06/24 04:53:02;;;;;;;38.10;9.52;;;25.20;72.30;;;;;;5038420;28;20040;-40
2021/06/24 04:55:38;;;;;;;33.08;9.35;;;25.20;72.50;;;;;;5038979;28;20394;-42
2021/06/24 04:58:04;;;;;;;34.60;8.63;;;25.10;71.80;;;;;;5038567;28;20025;-40
2021/06/24 05:00:30;;;;;;;35.95;9.10;;;25.20;71.90;;;;;;5038631;28;20618;-40
2021/06/24 05:02:55;;;;;;;34.53;10.25;;;25.20;71.80;;;;;;5038485;28;20029;-40
2021/06/24 05:05:21;;;;;;;40.15;9.93;;;25.20;71.30;;;;;;5038719;28;20056;-40
2021/06/24 05:07:46;;;;;;;32.42;9.00;;;25.30;71.10;;;;;;5038387;28;20111;-40
2021/06/24 05:10:13;;;;;;;34.88;8.07;;;25.30;70.80;;;;;;5038888;28;20095;-41
2021/06/24 05:12:39;;;;;;;30.77;9.32;;;25.30;70.80;;;;;;5038490;28;20299;-41
2021/06/24 05:15:06;;;;;;;29.70;8.30;;;25.30;70.60;;;;;;5038812;28;20159;-40
2021/06/24 05:17:31;;;;;;;33.40;9.05;;;25.30;70.90;;;;;;5038067;28;20388;-41
2021/06/24 05:19:58;;;;;;;26.83;8.18;;;25.40;71.10;;;;;;5037974;28;20073;-40
2021/06/24 05:22:25;;;;;;;31.42;7.95;;;25.40;70.60;;;;;;5037615;28;20058;-42
2021/06/24 05:24:50;;;;;;;34.95;9.18;;;25.40;70.40;;;;;;5038290;28;20021;-41
2021/06/24 05:27:16;;;;;;;22.70;7.65;;;25.50;70.10;;;;;;5037838;28;20021;-41
2021/06/24 05:29:42;;;;;;;30.55;8.38;;;25.60;70.20;;;;;;5037859;28;20046;-40
2021/06/24 05:32:07;;;;;;;28.80;7.35;;;25.60;69.00;;;;;;5038256;28;20036;-40
2021/06/24 05:34:33;;;;;;;35.60;8.10;;;25.60;68.60;;;;;;5037537;28;20104;-40
2021/06/24 05:37:01;;;;;;;26.90;7.82;;;25.70;67.60;;;;;;5037806;28;20330;-42
2021/06/24 05:39:27;;;;;;;27.25;8.27;;;25.70;67.70;;;;;;5037448;28;20038;-40
2021/06/24 05:41:57;;;;;;;24.50;8.25;;;25.80;67.60;;;;;;5037612;28;20326;-40
2021/06/24 05:44:24;;;;;;;31.98;8.23;;;25.80;68.00;;;;;;5038077;28;20307;-41
2021/06/24 05:46:50;;;;;;;34.95;8.55;;;25.90;67.40;;;;;;5037634;28;20068;-43
2021/06/24 05:49:16;;;;;;;23.85;7.63;;;26.00;66.90;;;;;;5037784;28;20103;-40
2021/06/24 05:51:42;;;;;;;26.70;9.00;;;26.00;67.30;;;;;;5037035;28;20426;-39
2021/06/24 05:54:08;;;;;;;18.08;8.80;;;26.10;67.30;;;;;;5037439;28;20095;-39
2021/06/24 05:56:33;;;;;;;24.17;10.02;;;26.10;67.10;;;;;;5037735;28;20053;-41
2021/06/24 05:58:59;;;;;;;24.88;8.52;;;26.20;66.70;;;;;;5037845;28;20424;-40
2021/06/24 06:01:25;;;;;;;30.70;8.02;;;26.30;66.80;;;;;;5037833;28;20033;-41
2021/06/24 06:03:50;;;;;;;22.42;9.10;;;26.30;66.80;;;;;;5037504;28;20076;-39
2021/06/24 06:06:16;;;;;;;30.15;9.35;;;26.40;66.60;;;;;;5038057;28;20318;-42
2021/06/24 06:08:42;;;;;;;27.88;8.55;;;26.50;66.40;;;;;;5036945;28;20071;-43
2021/06/24 06:11:07;;;;;;;23.45;8.38;;;26.60;66.30;;;;;;5037562;28;20033;-40
2021/06/24 06:13:33;;;;;;;23.55;8.75;;;26.60;65.80;;;;;;5036862;28;20064;-49
2021/06/24 06:15:59;;;;;;;22.20;7.45;;;26.60;65.50;;;;;;5037552;28;20030;-41
2021/06/24 06:18:26;;;;;;;22.83;7.35;;;26.60;65.50;;;;;;5036875;28;20031;-41
2021/06/24 06:20:54;;;;;;;20.05;8.23;;;26.70;65.90;;;;;;5037183;28;20064;-42
2021/06/24 06:23:21;;;;;;;24.70;8.65;;;26.80;65.80;;;;;;5051993;28;20018;-40
2021/06/24 06:25:48;;;;;;;25.10;7.95;;;26.80;65.50;;;;;;5037375;28;20029;-39
2021/06/24 06:28:16;;;;;;;28.23;8.13;;;26.80;65.40;;;;;;5036649;28;20025;-41
2021/06/24 06:30:42;;;;;;;23.05;8.15;;;26.80;65.40;;;;;;5037383;28;20132;-40
2021/06/24 06:33:09;;;;;;;25.00;9.68;;;26.80;65.80;;;;;;5036659;28;20033;-41
2021/06/24 06:35:35;;;;;;;25.88;9.32;;;26.80;65.40;;;;;;5036978;28;20038;-40
2021/06/24 06:38:02;;;;;;;25.77;9.05;;;26.90;65.80;;;;;;5036719;28;20032;-39
2021/06/24 06:40:27;;;;;;;27.42;8.30;;;26.90;65.70;;;;;;5036801;28;20136;-41
2021/06/24 06:42:53;;;;;;;40.03;19.23;;;27.00;65.60;;;;;;5036540;28;20303;-42
2021/06/24 06:45:21;;;;;;;20.40;9.85;;;27.00;65.50;;;;;;5051908;28;20038;-41
2021/06/24 06:47:48;;;;;;;29.08;11.15;;;27.00;65.50;;;;;;5036089;28;20036;-40
2021/06/24 06:50:15;;;;;;;28.25;8.80;;;27.10;66.00;;;;;;5036850;28;20025;-41
2021/06/24 06:52:41;;;;;;;22.52;8.02;;;27.10;65.80;;;;;;5033668;28;20108;-41
2021/06/24 06:55:07;;;;;;;30.75;8.23;;;27.10;65.80;;;;;;5035946;28;20354;-40
2021/06/24 06:57:32;;;;;;;32.55;8.38;;;27.20;66.00;;;;;;5036270;28;20031;-40
2021/06/24 06:59:58;;;;;;;30.50;12.77;;;27.30;65.90;;;;;;5036410;28;20248;-41
2021/06/24 07:02:24;;;;;;;23.85;10.40;;;27.30;65.60;;;;;;5036150;28;20029;-41
2021/06/24 07:04:49;;;;;;;23.05;10.38;;;27.30;65.60;;;;;;5036037;28;20029;-40
2021/06/24 07:07:15;;;;;;;28.00;10.80;;;27.40;65.90;;;;;;5036118;28;20022;-39
2021/06/24 07:09:41;;;;;;;26.55;9.93;;;27.40;65.50;;;;;;5036052;28;20052;-41
2021/06/24 07:12:08;;;;;;;25.85;9.48;;;27.50;65.60;;;;;;5036326;28;20033;-41
2021/06/24 07:14:34;;;;;;;33.45;9.43;;;27.50;65.50;;;;;;5035067;28;20033;-41
2021/06/24 07:16:59;;;;;;;20.40;8.63;;;27.60;65.40;;;;;;5035583;28;20038;-42
2021/06/24 07:19:25;;;;;;;24.95;8.65;;;27.70;65.80;;;;;;5035542;28;20083;-39
2021/06/24 07:21:51;;;;;;;20.15;8.30;;;27.70;65.80;;;;;;5035652;28;20354;-42
2021/06/24 07:24:18;;;;;;;26.45;9.57;;;27.80;65.70;;;;;;5051415;28;20029;-40
2021/06/24 07:26:44;;;;;;;23.35;8.52;;;27.90;65.10;;;;;;5036089;28;20318;-39
2021/06/24 07:29:10;;;;;;;21.98;7.60;;;27.90;65.10;;;;;;5035350;28;20026;-40
2021/06/24 07:31:35;;;;;;;25.25;9.23;;;28.00;64.90;;;;;;5036140;28;20441;-41
2021/06/24 07:34:01;;;;;;;25.38;10.15;;;28.10;64.20;;;;;;5035129;28;20471;-41
2021/06/24 07:36:27;;;;;;;26.33;9.60;;;28.10;63.40;;;;;;5036093;28;20310;-41
2021/06/24 07:38:52;;;;;;;22.42;7.60;;;28.10;63.00;;;;;;5034801;28;20021;-41
2021/06/24 07:41:20;;;;;;;28.90;9.00;;;28.20;63.00;;;;;;5035814;28;20037;-42
2021/06/24 07:43:45;;;;;;;19.35;8.65;;;28.20;63.00;;;;;;5035196;28;20327;-39
2021/06/24 07:46:12;;;;;;;12.77;7.57;;;28.30;63.10;;;;;;5035964;28;20355;-39
2021/06/24 07:48:37;;;;;;;18.58;8.27;;;28.30;63.10;;;;;;5034707;28;20030;-39
2021/06/24 07:51:03;;;;;;;27.95;6.35;;;28.30;62.90;;;;;;5035781;28;20056;-40
2021/06/24 07:53:29;;;;;;;21.45;6.72;;;28.40;63.00;;;;;;5034880;28;20033;-40
2021/06/24 07:55:55;;;;;;;19.83;6.88;;;28.40;62.70;;;;;;5035909;28;20034;-43
2021/06/24 07:58:20;;;;;;;16.25;7.47;;;28.40;62.30;;;;;;5034416;28;20330;-40
2021/06/24 08:00:46;;;;;;;28.23;8.00;;;28.50;62.40;;;;;;5035067;28;20033;-40
2021/06/24 08:03:12;;;;;;;24.17;6.97;;;28.50;62.70;;;;;;5034615;28;20022;-41
2021/06/24 08:05:37;;;;;;;19.95;6.88;;;28.50;63.20;;;;;;5035379;28;20116;-42
2021/06/24 08:08:03;;;;;;;23.70;7.50;;;28.60;63.10;;;;;;5034425;28;20317;-40
2021/06/24 08:10:29;;;;;;;20.05;7.85;;;28.70;63.30;;;;;;5035384;28;20045;-42
2021/06/24 08:12:55;;;;;;;18.75;7.75;;;28.80;62.90;;;;;;5034573;28;20029;-39
2021/06/24 08:15:21;;;;;;;17.60;8.18;;;28.80;63.00;;;;;;5035001;28;20156;-39
2021/06/24 08:17:47;;;;;;;14.27;6.68;;;28.90;62.50;;;;;;5034618;28;20202;-42
2021/06/24 08:20:15;;;;;;;25.25;7.85;;;28.90;62.40;;;;;;5035011;28;20418;-41
2021/06/24 08:22:41;;;;;;;20.98;7.22;;;28.90;62.30;;;;;;5034070;28;20468;-41
2021/06/24 08:25:08;;;;;;;23.85;7.90;;;29.00;62.40;;;;;;5035296;28;20075;-41
2021/06/24 08:27:35;;;;;;;19.67;7.18;;;29.00;62.40;;;;;;5034334;28;20045;-43
2021/06/24 08:30:06;;;;;;;19.80;7.00;;;29.00;62.30;;;;;;5034691;28;20036;-39
2021/06/24 08:32:32;;;;;;;20.40;6.80;;;29.10;62.60;;;;;;5033101;28;20315;-43
2021/06/24 08:34:57;;;;;;;17.25;7.88;;;29.10;62.20;;;;;;5034540;28;20041;-42
2021/06/24 08:40:45;;;;;;;26.55;7.95;;;29.20;61.90;;;;;;5033857;28;20040;-43
2021/06/24 08:43:11;;;;;;;19.00;7.60;;;29.30;61.80;;;;;;5034287;28;20033;-42
2021/06/24 08:45:41;;;;;;;21.30;6.55;;;29.30;61.60;;;;;;5034958;28;20087;-44
2021/06/24 08:51:30;;;;;;;21.85;6.30;;;29.40;62.10;;;;;;5035369;28;20463;-40
2021/06/24 08:53:56;;;;;;;17.77;7.00;;;29.50;62.30;;;;;;5034416;28;20058;-42
2021/06/24 08:56:21;;;;;;;13.05;7.07;;;29.60;61.40;;;;;;5035393;28;20353;-40
2021/06/24 08:58:51;;;;;;;19.70;7.13;;;29.70;61.30;;;;;;5034266;28;20033;-42
2021/06/24 09:01:17;;;;;;;22.45;6.40;;;29.70;61.70;;;;;;5034762;28;20038;-39
2021/06/24 09:03:44;;;;;;;12.40;5.28;;;29.80;61.80;;;;;;5034120;28;20390;-42
2021/06/24 09:06:10;;;;;;;17.58;6.72;;;29.90;62.30;;;;;;5035046;28;20033;-43
2021/06/24 09:08:46;;;;;;;18.10;5.68;;;30.00;61.90;;;;;;5034216;28;20029;-40
2021/06/24 09:11:22;;;;;;;19.77;4.90;;;30.10;61.40;;;;;;5037276;28;20035;-43
2021/06/24 09:14:04;;;;;;;19.52;6.18;;;30.10;61.50;;;;;;5038027;28;20030;-43
2021/06/24 09:16:36;;;;;;;16.85;5.50;;;30.30;60.90;;;;;;5038822;28;20030;-41
2021/06/24 09:19:14;;;;;;;19.42;5.78;;;30.30;60.80;;;;;;5038199;28;20026;-43
2021/06/24 09:21:40;;;;;;;16.13;5.00;;;30.40;60.90;;;;;;5038084;28;20128;-43
2021/06/24 09:24:40;;;;;;;19.30;5.15;;;30.50;60.90;;;;;;5038057;28;20413;-41
2021/06/24 09:27:18;;;;;;;18.58;5.28;;;30.60;59.90;;;;;;5037954;28;20060;-42
2021/06/24 09:30:01;;;;;;;14.88;5.70;;;30.70;60.30;;;;;;5037993;28;20029;-40
2021/06/24 09:32:34;;;;;;;14.95;4.82;;;30.80;59.20;;;;;;5038135;28;20038;-40
2021/06/24 09:35:04;;;;;;;18.63;5.18;;;30.90;58.80;;;;;;5037921;28;20029;-41
2021/06/24 09:37:50;;;;;;;16.45;9.02;;;31.00;58.80;;;;;;5037021;28;20464;-42
2021/06/24 09:40:16;;;;;;;15.95;5.43;;;31.10;57.90;;;;;;5037815;28;20045;-40
2021/06/24 09:42:41;;;;;;;14.07;6.35;;;31.20;57.40;;;;;;5037456;28;20104;-40
2021/06/24 09:45:08;;;;;;;15.10;5.75;;;31.30;57.20;;;;;;5037939;28;20461;-45
2021/06/24 09:47:33;;;;;;;13.55;5.35;;;31.40;57.30;;;;;;5036673;28;20021;-42
2021/06/24 09:50:08;;;;;;;13.57;5.40;;;31.40;57.30;;;;;;5037884;28;20025;-41
2021/06/24 09:52:35;;;;;;;15.25;5.28;;;31.50;56.90;;;;;;5037445;28;20029;-40
2021/06/24 09:55:04;;;;;;;11.20;5.10;;;31.60;57.10;;;;;;5037929;28;20041;-41
2021/06/24 09:57:30;;;;;;;17.17;4.68;;;31.70;56.80;;;;;;5037146;28;20036;-43
2021/06/24 09:59:55;;;;;;;12.20;5.35;;;31.70;56.80;;;;;;5037510;28;20117;-42
2021/06/24 10:02:21;;;;;;;15.15;5.15;;;31.80;56.90;;;;;;5037203;28;20052;-43
2021/06/24 10:04:48;;;;;;;11.68;5.32;;;31.90;56.80;;;;;;5037824;28;20033;-41
2021/06/24 10:07:16;;;;;;;15.02;5.57;;;31.90;57.10;;;;;;5037253;28;20041;-40
2021/06/24 10:09:45;;;;;;;24.10;8.82;;;32.00;56.60;;;;;;5037734;28;20026;-44
2021/06/24 10:12:20;;;;;;;19.30;5.88;;;32.10;56.20;;;;;;5036860;28;20325;-42
2021/06/24 10:14:48;;;;;;;20.45;6.10;;;32.10;56.60;;;;;;5037720;28;20136;-40
2021/06/24 10:17:14;;;;;;;22.75;6.72;;;32.20;56.60;;;;;;5037306;28;20061;-42
2021/06/24 10:19:42;;;;;;;15.75;4.68;;;32.30;55.80;;;;;;5037404;28;20313;-44
2021/06/24 10:22:29;;;;;;;13.75;5.20;;;32.40;55.50;;;;;;5035947;28;20060;-41
2021/06/24 10:25:10;;;;;;;18.42;5.03;;;32.50;55.50;;;;;;5052895;28;20377;-40
2021/06/24 10:27:37;;;;;;;12.45;5.25;;;32.60;55.10;;;;;;5036943;28;20030;-42
2021/06/24 10:30:14;;;;;;;14.38;5.47;;;32.60;54.70;;;;;;5037067;28;20051;-41
2021/06/24 10:32:41;;;;;;;17.23;5.50;;;32.60;54.50;;;;;;5036827;28;20029;-41
2021/06/24 10:35:29;;;;;;;14.45;6.00;;;32.70;54.70;;;;;;5037233;28;20030;-42
2021/06/24 10:37:55;;;;;;;13.68;5.78;;;32.70;54.20;;;;;;5036395;28;20060;-43
2021/06/24 10:40:38;;;;;;;15.68;5.35;;;32.80;54.10;;;;;;5036938;28;20029;-41
2021/06/24 10:43:15;;;;;;;15.68;4.80;;;32.80;54.00;;;;;;5036692;28;20104;-41
2021/06/24 10:45:43;;;;;;;22.33;5.47;;;32.80;55.30;;;;;;5037012;28;20030;-41
2021/06/24 10:48:34;;;;;;;15.32;5.07;;;32.90;54.80;;;;;;5036275;28;20203;-40
2021/06/24 10:51:10;;;;;;;16.27;4.93;;;33.00;55.20;;;;;;5034769;28;20049;-42
2021/06/24 10:53:42;;;;;;;19.67;4.75;;;33.00;55.10;;;;;;5036080;28;20025;-43
2021/06/24 10:56:29;;;;;;;15.90;4.63;;;33.20;54.90;;;;;;5036755;28;20079;-42
2021/06/24 10:58:56;;;;;;;16.48;5.07;;;33.20;54.60;;;;;;5036481;28;20021;-41
2021/06/24 11:01:45;;;;;;;16.35;5.47;;;33.30;54.40;;;;;;5036802;28;20394;-44
2021/06/24 11:04:32;;;;;;;13.35;4.90;;;33.40;54.20;;;;;;5036595;28;20034;-40
2021/06/24 11:06:59;;;;;;;10.10;4.53;;;33.40;54.50;;;;;;5036621;28;20045;-44
2021/06/24 11:09:25;;;;;;;14.65;5.60;;;33.50;54.00;;;;;;5036349;28;20048;-42
2021/06/24 11:11:51;;;;;;;19.95;5.78;;;33.50;53.30;;;;;;5036653;28;20405;-40
2021/06/24 11:14:58;;;;;;;13.27;4.57;;;33.60;53.40;;;;;;5036137;28;20373;-41
2021/06/24 11:17:50;;;;;;;14.93;4.45;;;33.70;53.40;;;;;;5031005;28;20041;-40
2021/06/24 11:20:19;;;;;;;20.10;6.00;;;33.80;52.90;;;;;;5034070;28;20045;-43
2021/06/24 11:22:46;;;;;;;19.45;5.60;;;33.90;52.90;;;;;;5035372;28;20062;-41
2021/06/24 11:25:12;;;;;;;24.80;5.25;;;34.00;52.60;;;;;;5036137;28;20038;-40
2021/06/24 11:27:38;;;;;;;14.90;5.65;;;34.10;52.70;;;;;;5035281;28;20091;-41
2021/06/24 11:30:04;;;;;;;15.43;5.38;;;34.20;52.60;;;;;;5036331;28;20025;-41
2021/06/24 11:32:36;;;;;;;19.50;6.63;;;34.20;52.10;;;;;;5034943;28;20037;-40
2021/06/24 11:35:14;;;;;;;22.65;6.88;;;34.30;51.30;;;;;;5036045;28;20062;-40
2021/06/24 11:37:40;;;;;;;20.33;5.47;;;34.40;51.80;;;;;;5035034;28;20040;-43
2021/06/24 11:40:08;;;;;;;14.30;5.00;;;34.50;51.60;;;;;;5035960;28;20104;-42
2021/06/24 11:42:42;;;;;;;25.85;5.80;;;34.70;51.40;;;;;;5035094;28;20120;-42
2021/06/24 11:45:10;;;;;;;19.52;5.40;;;34.80;51.20;;;;;;5035728;28;20040;-42
2021/06/24 12:00:54;;;;;;;20.45;5.70;;;35.50;48.30;;;;;;5015929;28;20069;-46
2021/06/24 12:03:21;;;;;;;16.65;6.03;;;35.60;47.80;;;;;;5015193;28;20414;-40
2021/06/24 12:05:54;;;;;;;21.65;5.10;;;35.80;47.30;;;;;;5015809;28;20034;-40
2021/06/24 12:08:21;;;;;;;26.00;5.38;;;35.90;46.80;;;;;;5014707;28;20033;-41
2021/06/24 12:10:47;;;;;;;22.33;5.15;;;36.00;47.30;;;;;;5015272;28;20064;-41
2021/06/24 12:13:30;;;;;;;24.00;5.38;;;36.10;47.00;;;;;;5014762;28;20065;-41
2021/06/24 12:15:56;;;;;;;25.27;5.25;;;36.20;46.40;;;;;;5015959;28;20287;-43
2021/06/24 12:18:36;;;;;;;19.83;5.00;;;36.30;46.60;;;;;;5015325;28;20056;-42
2021/06/24 12:21:04;;;;;;;22.83;5.32;;;36.40;46.70;;;;;;5015330;28;20438;-41
2021/06/24 12:23:30;;;;;;;16.80;4.78;;;36.50;46.50;;;;;;5015238;28;20058;-43
2021/06/24 12:25:59;;;;;;;21.08;6.07;;;36.50;46.00;;;;;;5015650;28;20058;-42
2021/06/24 12:28:25;;;;;;;29.38;5.90;;;36.60;45.90;;;;;;5014819;28;20163;-42
2021/06/24 12:30:51;;;;;;;21.42;6.13;;;36.70;45.60;;;;;;5015261;28;20061;-42
2021/06/24 12:33:18;;;;;;;18.80;6.10;;;36.90;46.30;;;;;;5014680;28;20034;-44
2021/06/24 12:35:49;;;;;;;18.90;5.30;;;37.00;45.30;;;;;;5015328;28;20041;-40
2021/06/24 12:38:28;;;;;;;26.30;4.93;;;37.00;45.20;;;;;;5014374;28;20030;-42
2021/06/24 12:40:57;;;;;;;29.83;7.18;;;37.10;44.80;;;;;;5014969;28;20164;-42
2021/06/24 12:43:29;;;;;;;21.77;6.03;;;37.20;44.80;;;;;;5015120;28;20069;-43
2021/06/24 12:45:58;;;;;;;21.50;6.05;;;37.30;44.90;;;;;;5017340;28;20034;-41
2021/06/24 12:48:31;;;;;;;23.83;5.72;;;37.40;44.80;;;;;;5018483;28;20044;-44
2021/06/24 12:51:05;;;;;;;14.25;5.50;;;37.50;44.50;;;;;;5019122;28;20136;-41
2021/06/24 12:53:37;;;;;;;20.13;4.85;;;37.60;44.50;;;;;;5018276;28;20041;-47
2021/06/24 12:56:20;;;;;;;17.13;5.30;;;37.60;44.60;;;;;;5018625;28;20045;-42
2021/06/24 12:58:46;;;;;;;15.15;4.43;;;37.70;44.30;;;;;;5018381;28;20026;-41
2021/06/24 13:01:15;;;;;;;23.17;5.13;;;37.80;44.40;;;;;;5018935;28;20322;-41
2021/06/24 13:03:55;;;;;;;20.65;4.75;;;37.80;44.40;;;;;;5018733;28;20029;-41